Time;durP1;ratioP1;P1;durP2;ratioP2;P2;SDS_P1;SDS_P2;PMS_P1;PMS_P2;Temp;Humidity;BMP_temperature;BMP_pressure;BME280_temperature;BME280_humidity;BME280_pressure;Samples;Min_cycle;Max_cycle;Signal;HPM_P1;HPM_P2
2024/01/11 00:01:34;;;;;;;59.58;31.98;;;-4.30;1.00;;;;;;7376192;19;20334;-69
2024/01/11 00:04:07;;;;;;;66.85;32.88;;;-4.30;1.00;;;;;;7376574;19;20010;-70
2024/01/11 00:06:43;;;;;;;63.35;32.05;;;-4.30;1.00;;;;;;7375613;19;20015;-70
2024/01/11 00:09:14;;;;;;;70.60;32.40;;;-4.30;1.00;;;;;;7376097;19;20014;-71
2024/01/11 00:11:44;;;;;;;69.88;32.33;;;-4.30;1.00;;;;;;7375917;19;20010;-70
2024/01/11 00:14:14;;;;;;;65.10;29.90;;;-4.30;1.00;;;;;;7376050;19;20011;-69
2024/01/11 00:16:44;;;;;;;62.42;31.73;;;-4.30;1.00;;;;;;7375404;19;20003;-70
2024/01/11 00:19:17;;;;;;;66.05;32.33;;;-4.40;1.00;;;;;;7375522;19;20011;-70
2024/01/11 00:21:47;;;;;;;57.60;29.88;;;-4.30;1.00;;;;;;7376875;19;20002;-70
2024/01/11 00:24:17;;;;;;;63.75;32.28;;;-4.40;1.00;;;;;;7374327;19;20006;-70
2024/01/11 00:26:47;;;;;;;58.95;30.83;;;-4.40;1.00;;;;;;7377382;19;20007;-69
2024/01/11 00:29:17;;;;;;;64.13;31.65;;;-4.40;1.00;;;;;;7376608;19;20017;-69
2024/01/11 00:31:47;;;;;;;56.75;30.25;;;-4.40;1.00;;;;;;7376124;19;20018;-69
2024/01/11 00:34:21;;;;;;;74.22;30.75;;;-4.40;1.00;;;;;;7377390;19;20027;-69
2024/01/11 00:36:51;;;;;;;62.83;29.35;;;-4.50;1.00;;;;;;7372283;19;20052;-71
2024/01/11 00:39:21;;;;;;;60.88;30.10;;;-4.50;1.00;;;;;;7373971;19;20024;-69
2024/01/11 00:41:51;;;;;;;64.72;32.03;;;-4.50;1.00;;;;;;7375945;19;20039;-70
2024/01/11 00:44:21;;;;;;;60.80;30.52;;;-4.40;1.00;;;;;;7376149;19;20043;-72
2024/01/11 00:46:51;;;;;;;66.80;31.67;;;-4.40;1.00;;;;;;7374425;19;20034;-71
2024/01/11 00:49:24;;;;;;;68.95;31.63;;;-4.50;1.00;;;;;;7377215;19;20015;-71
2024/01/11 00:51:54;;;;;;;59.03;30.85;;;-4.40;1.00;;;;;;7382791;19;20661;-69
2024/01/11 00:54:24;;;;;;;70.70;31.55;;;-4.40;1.00;;;;;;7380055;19;20018;-70
2024/01/11 00:56:57;;;;;;;62.70;30.73;;;-4.40;1.00;;;;;;7381380;19;20011;-70
2024/01/11 00:59:29;;;;;;;58.65;29.30;;;-4.40;1.00;;;;;;7381953;19;20031;-70
2024/01/11 01:01:59;;;;;;;67.22;31.65;;;-4.60;1.00;;;;;;7382601;19;20042;-69
2024/01/11 01:04:32;;;;;;;61.80;30.30;;;-4.50;1.00;;;;;;7379552;19;20017;-69
2024/01/11 01:07:02;;;;;;;57.78;30.55;;;-4.50;1.00;;;;;;7383083;19;20066;-70
2024/01/11 01:09:32;;;;;;;59.95;30.00;;;-4.50;1.00;;;;;;7381242;19;20061;-70
2024/01/11 01:12:02;;;;;;;56.13;29.25;;;-4.60;1.00;;;;;;7381201;19;20025;-70
2024/01/11 01:14:32;;;;;;;63.30;30.50;;;-4.70;1.00;;;;;;7380482;19;20029;-69
2024/01/11 01:17:03;;;;;;;61.70;27.23;;;-4.70;1.00;;;;;;7381937;19;20295;-70
2024/01/11 01:19:36;;;;;;;52.92;27.88;;;-4.70;1.00;;;;;;7379143;19;20303;-69
2024/01/11 01:22:06;;;;;;;62.77;28.60;;;-4.60;1.00;;;;;;7382234;19;20009;-69
2024/01/11 01:24:36;;;;;;;66.60;30.67;;;-4.60;1.00;;;;;;7381535;19;20018;-70
2024/01/11 01:27:06;;;;;;;59.08;28.58;;;-4.60;1.00;;;;;;7380415;19;20014;-70
2024/01/11 01:29:36;;;;;;;61.90;30.33;;;-4.60;1.00;;;;;;7381253;19;20019;-70
2024/01/11 01:32:07;;;;;;;62.45;28.73;;;-4.60;1.00;;;;;;7379999;19;20471;-70
2024/01/11 01:34:40;;;;;;;62.35;29.90;;;-4.70;1.00;;;;;;7380900;19;20018;-70
2024/01/11 01:37:10;;;;;;;62.65;30.55;;;-4.70;1.00;;;;;;7380000;19;20018;-70
2024/01/11 01:39:41;;;;;;;68.05;29.70;;;-4.70;1.00;;;;;;7380751;19;20018;-70
2024/01/11 01:42:12;;;;;;;58.65;29.08;;;-4.70;1.00;;;;;;7381239;19;20046;-70
2024/01/11 01:44:42;;;;;;;65.70;32.15;;;-4.80;1.00;;;;;;7381477;19;20069;-70
2024/01/11 01:47:13;;;;;;;59.55;28.92;;;-4.80;1.00;;;;;;7380478;19;20006;-71
2024/01/11 01:49:47;;;;;;;63.08;30.75;;;-4.80;1.00;;;;;;7380470;19;20471;-70
2024/01/11 01:52:19;;;;;;;59.50;27.97;;;-4.80;1.00;;;;;;7381087;19;20010;-68
2024/01/11 01:54:51;;;;;;;62.80;30.63;;;-4.90;1.00;;;;;;7379581;19;20263;-69
2024/01/11 01:57:22;;;;;;;63.88;29.88;;;-4.90;1.00;;;;;;7384868;19;20007;-69
2024/01/11 01:59:54;;;;;;;66.28;28.33;;;-4.90;1.00;;;;;;7380857;19;20013;-69
2024/01/11 02:02:25;;;;;;;61.63;29.35;;;-4.80;1.00;;;;;;7379665;19;20467;-71
2024/01/11 02:04:57;;;;;;;68.10;31.13;;;-4.80;1.00;;;;;;7380454;19;20094;-70
2024/01/11 02:07:28;;;;;;;60.88;28.50;;;-4.90;1.00;;;;;;7379170;19;20019;-70
2024/01/11 02:09:59;;;;;;;60.67;31.17;;;-4.80;1.00;;;;;;7379464;19;20017;-70
2024/01/11 02:12:29;;;;;;;64.63;29.83;;;-4.80;1.00;;;;;;7379613;19;20003;-69
2024/01/11 02:14:59;;;;;;;63.38;31.02;;;-4.90;1.00;;;;;;7379307;19;20014;-69
2024/01/11 02:17:29;;;;;;;62.55;30.17;;;-5.00;1.00;;;;;;7381119;19;20017;-69
2024/01/11 02:20:03;;;;;;;62.58;29.15;;;-5.00;1.00;;;;;;7380204;19;20028;-69
2024/01/11 02:22:37;;;;;;;63.65;28.00;;;-4.90;1.00;;;;;;7380234;19;20031;-70
2024/01/11 02:25:10;;;;;;;59.95;26.67;;;-4.90;1.00;;;;;;7379613;19;20015;-68
2024/01/11 02:27:58;;;;;;;55.70;29.95;;;-4.90;1.00;;;;;;7378090;19;20025;-69
2024/01/11 02:30:28;;;;;;;64.45;30.92;;;-4.90;1.00;;;;;;7372262;19;20006;-69
2024/01/11 02:32:58;;;;;;;55.53;28.98;;;-4.90;1.00;;;;;;7380442;19;20375;-69
2024/01/11 02:35:29;;;;;;;64.55;30.25;;;-5.00;1.00;;;;;;7379176;19;20010;-69
2024/01/11 02:38:01;;;;;;;63.67;31.92;;;-5.00;1.00;;;;;;7380634;19;20359;-70
2024/01/11 02:40:34;;;;;;;63.40;30.42;;;-5.00;1.00;;;;;;7379971;19;20143;-69
2024/01/11 02:43:10;;;;;;;62.47;29.35;;;-5.00;1.00;;;;;;7379606;19;20396;-70
2024/01/11 02:45:40;;;;;;;66.25;29.88;;;-5.10;1.00;;;;;;7379326;19;20467;-69
2024/01/11 02:48:10;;;;;;;63.08;31.00;;;-5.00;1.00;;;;;;7378909;19;20010;-68
2024/01/11 02:50:41;;;;;;;62.30;30.05;;;-5.00;1.00;;;;;;7377786;19;20006;-69
2024/01/11 02:53:11;;;;;;;63.38;30.80;;;-5.00;1.00;;;;;;7379014;19;20504;-68
2024/01/11 02:55:43;;;;;;;66.03;31.77;;;-5.10;1.00;;;;;;7378323;19;20039;-69
2024/01/11 02:58:13;;;;;;;67.95;29.25;;;-5.10;1.00;;;;;;7378604;19;20014;-68
2024/01/11 03:00:44;;;;;;;58.45;30.30;;;-4.90;1.00;;;;;;7377449;19;20027;-69
2024/01/11 03:03:14;;;;;;;59.72;30.50;;;-5.00;1.00;;;;;;7378517;19;20009;-69
2024/01/11 03:05:44;;;;;;;61.20;29.65;;;-5.10;1.00;;;;;;7379652;19;20026;-69
2024/01/11 03:08:14;;;;;;;65.53;29.63;;;-5.10;1.00;;;;;;7378818;19;20033;-69
2024/01/11 03:10:47;;;;;;;70.00;31.50;;;-5.00;1.00;;;;;;7379242;19;20026;-69
2024/01/11 03:13:17;;;;;;;59.83;30.75;;;-5.00;1.00;;;;;;7376961;19;20384;-69
2024/01/11 03:15:47;;;;;;;64.30;30.73;;;-5.00;1.00;;;;;;7379657;19;20026;-70
2024/01/11 03:18:17;;;;;;;63.88;31.42;;;-5.00;1.00;;;;;;7378218;19;20006;-70
2024/01/11 03:20:47;;;;;;;72.95;31.77;;;-5.00;1.00;;;;;;7379265;19;20520;-69
2024/01/11 03:23:17;;;;;;;64.18;30.35;;;-5.00;1.00;;;;;;7378400;19;20672;-70
2024/01/11 03:25:50;;;;;;;67.05;30.95;;;-5.00;1.00;;;;;;7378046;19;20440;-68
2024/01/11 03:28:20;;;;;;;71.60;30.42;;;-5.10;1.00;;;;;;7379317;19;20014;-71
2024/01/11 03:30:50;;;;;;;59.28;30.83;;;-5.10;1.00;;;;;;7378367;19;20014;-68
2024/01/11 03:33:20;;;;;;;67.20;30.92;;;-5.10;1.00;;;;;;7373732;19;20010;-69
2024/01/11 03:35:50;;;;;;;66.60;32.05;;;-5.10;1.00;;;;;;7379263;19;20307;-70
2024/01/11 03:38:20;;;;;;;62.20;30.48;;;-5.10;1.00;;;;;;7376224;19;20013;-69
2024/01/11 03:40:53;;;;;;;67.18;32.28;;;-5.10;1.00;;;;;;7378945;19;20404;-70
2024/01/11 03:43:23;;;;;;;64.07;31.45;;;-5.20;1.00;;;;;;7377458;19;20027;-69
2024/01/11 03:45:54;;;;;;;63.70;30.88;;;-5.20;1.00;;;;;;7377396;19;20010;-70
2024/01/11 03:48:24;;;;;;;69.50;31.83;;;-5.20;1.00;;;;;;7379873;19;20014;-70
2024/01/11 03:50:54;;;;;;;62.95;31.35;;;-5.20;1.00;;;;;;7377687;19;20034;-71
2024/01/11 03:53:24;;;;;;;68.22;30.85;;;-5.20;1.00;;;;;;7378846;19;20037;-72
2024/01/11 03:55:57;;;;;;;66.40;31.50;;;-5.20;1.00;;;;;;7377059;19;20039;-70
2024/01/11 03:58:27;;;;;;;69.40;32.75;;;-5.20;1.00;;;;;;7377970;19;20040;-68
2024/01/11 04:00:57;;;;;;;59.35;29.08;;;-5.10;1.00;;;;;;7373481;19;20081;-70
2024/01/11 04:03:27;;;;;;;61.78;30.50;;;-5.10;1.00;;;;;;7377503;19;20010;-70
2024/01/11 04:05:57;;;;;;;67.28;32.88;;;-5.20;1.00;;;;;;7376314;19;20058;-70
2024/01/11 04:08:27;;;;;;;63.05;31.13;;;-5.20;1.00;;;;;;7377709;19;20018;-69
2024/01/11 04:11:00;;;;;;;64.60;30.90;;;-5.20;1.00;;;;;;7377289;19;20052;-68
2024/01/11 04:13:30;;;;;;;65.53;31.45;;;-5.30;1.00;;;;;;7378050;19;20010;-69
2024/01/11 04:16:00;;;;;;;69.88;31.52;;;-5.30;1.00;;;;;;7377235;19;20036;-70
2024/01/11 04:18:30;;;;;;;68.10;31.15;;;-5.30;1.00;;;;;;7383299;19;20014;-69
2024/01/11 04:21:00;;;;;;;63.75;30.20;;;-5.30;1.00;;;;;;7380929;19;20021;-70
2024/01/11 04:23:30;;;;;;;74.93;32.53;;;-5.30;1.00;;;;;;7378195;19;20018;-69
2024/01/11 04:26:03;;;;;;;68.30;31.55;;;-5.30;1.00;;;;;;7382464;19;20010;-70
2024/01/11 04:28:33;;;;;;;64.40;31.23;;;-5.30;1.00;;;;;;7383300;19;20456;-68
2024/01/11 04:31:03;;;;;;;68.97;31.27;;;-5.40;1.00;;;;;;7380224;19;20419;-68
2024/01/11 04:33:33;;;;;;;66.22;33.58;;;-5.40;1.00;;;;;;7382406;19;20021;-68
2024/01/11 04:36:04;;;;;;;70.50;32.60;;;-5.50;1.00;;;;;;7382148;19;20006;-70
2024/01/11 04:38:34;;;;;;;69.03;33.88;;;-5.40;1.00;;;;;;7383558;19;20007;-70
2024/01/11 04:41:10;;;;;;;70.28;33.50;;;-5.50;1.00;;;;;;7382177;19;20019;-69
2024/01/11 04:43:41;;;;;;;68.93;34.05;;;-5.50;1.00;;;;;;7383031;19;20011;-69
2024/01/11 04:46:18;;;;;;;65.38;31.70;;;-5.50;1.00;;;;;;7381804;19;20006;-69
2024/01/11 04:48:48;;;;;;;71.10;33.65;;;-5.50;1.00;;;;;;7382442;19;20006;-69
2024/01/11 04:51:20;;;;;;;69.15;30.33;;;-5.50;1.00;;;;;;7382820;19;20112;-69
2024/01/11 04:53:50;;;;;;;73.53;31.73;;;-5.40;1.00;;;;;;7382636;19;20014;-69
2024/01/11 04:56:22;;;;;;;67.43;31.73;;;-5.40;1.00;;;;;;7383310;19;20014;-69
2024/01/11 04:58:53;;;;;;;68.43;31.60;;;-5.40;1.00;;;;;;7380234;19;20015;-69
2024/01/11 05:01:23;;;;;;;69.97;33.30;;;-5.40;1.00;;;;;;7384849;19;20735;-69
2024/01/11 05:03:53;;;;;;;73.13;33.70;;;-5.40;1.00;;;;;;7383371;19;20002;-70
2024/01/11 05:06:25;;;;;;;69.75;32.15;;;-5.50;1.00;;;;;;7383089;19;20002;-69
2024/01/11 05:08:55;;;;;;;68.60;31.38;;;-5.50;1.00;;;;;;7381726;19;20036;-68
2024/01/11 05:11:28;;;;;;;70.22;30.83;;;-5.50;1.00;;;;;;7384073;19;20019;-69
2024/01/11 05:13:58;;;;;;;70.47;33.17;;;-5.50;1.10;;;;;;7379407;19;20036;-70
2024/01/11 05:16:29;;;;;;;73.78;32.92;;;-5.50;2.30;;;;;;7381316;19;20010;-69
2024/01/11 05:19:00;;;;;;;66.30;30.73;;;-5.50;1.00;;;;;;7381089;19;20018;-70
2024/01/11 05:21:30;;;;;;;71.18;31.88;;;-5.60;1.00;;;;;;7382228;19;20048;-68
2024/01/11 05:24:01;;;;;;;69.20;31.02;;;-5.60;1.00;;;;;;7380898;19;20014;-68
2024/01/11 05:26:34;;;;;;;70.50;32.13;;;-5.70;1.00;;;;;;7381556;19;20010;-69
2024/01/11 05:29:06;;;;;;;61.53;29.13;;;-5.70;1.00;;;;;;7379511;19;20011;-68
2024/01/11 05:31:37;;;;;;;74.50;32.47;;;-5.70;1.00;;;;;;7380122;19;20480;-69
2024/01/11 05:34:08;;;;;;;60.72;29.40;;;-5.70;1.00;;;;;;7379873;19;20006;-69
2024/01/11 05:36:38;;;;;;;62.35;31.48;;;-5.70;1.00;;;;;;7379968;19;20014;-70
2024/01/11 05:39:08;;;;;;;59.92;31.23;;;-5.70;1.00;;;;;;7381274;19;20074;-69
2024/01/11 05:41:41;;;;;;;62.85;30.92;;;-5.70;1.00;;;;;;7378481;19;20752;-68
2024/01/11 05:44:11;;;;;;;67.72;32.05;;;-5.70;1.00;;;;;;7380572;19;20035;-68
2024/01/11 05:46:41;;;;;;;70.43;31.35;;;-5.70;1.00;;;;;;7381580;19;20018;-69
2024/01/11 05:49:11;;;;;;;63.60;30.73;;;-5.80;1.00;;;;;;7380759;19;20031;-68
2024/01/11 05:51:41;;;;;;;67.18;31.90;;;-5.70;1.00;;;;;;7381567;19;20044;-68
2024/01/11 05:54:11;;;;;;;64.00;30.17;;;-5.70;1.00;;;;;;7379468;19;20022;-69
2024/01/11 05:56:44;;;;;;;70.53;30.98;;;-5.70;1.00;;;;;;7380283;19;20017;-69
2024/01/11 05:59:14;;;;;;;59.95;31.10;;;-5.70;1.00;;;;;;7380399;19;20834;-68
2024/01/11 06:01:46;;;;;;;63.92;31.83;;;-5.70;1.00;;;;;;7380128;19;20014;-68
2024/01/11 06:04:16;;;;;;;71.03;32.83;;;-5.70;1.00;;;;;;7381057;19;20018;-69
2024/01/11 06:06:46;;;;;;;71.10;30.15;;;-5.80;1.00;;;;;;7382007;19;20497;-68
2024/01/11 06:09:16;;;;;;;69.10;34.42;;;-5.70;1.00;;;;;;7380763;19;20014;-69
2024/01/11 06:11:49;;;;;;;68.25;33.15;;;-5.80;1.00;;;;;;7380795;19;20546;-69
2024/01/11 06:14:20;;;;;;;72.95;32.33;;;-5.80;1.00;;;;;;7380722;19;20018;-69
2024/01/11 06:16:50;;;;;;;62.67;29.40;;;-5.80;1.00;;;;;;7381561;19;21405;-69
2024/01/11 06:19:20;;;;;;;77.95;32.92;;;-5.70;1.00;;;;;;7380080;19;20022;-69
2024/01/11 06:21:50;;;;;;;79.28;33.35;;;-5.60;1.00;;;;;;7381539;19;20036;-68
2024/01/11 06:24:20;;;;;;;70.43;32.42;;;-5.70;1.00;;;;;;7380453;19;20033;-68
2024/01/11 06:26:52;;;;;;;65.68;33.40;;;-5.80;1.00;;;;;;7380853;19;20478;-68
2024/01/11 06:29:22;;;;;;;72.53;31.70;;;-5.70;1.00;;;;;;7378017;19;20011;-69
2024/01/11 06:31:52;;;;;;;59.33;30.23;;;-5.80;1.00;;;;;;7380236;19;20010;-69
2024/01/11 06:34:22;;;;;;;66.72;30.77;;;-5.80;1.00;;;;;;7378530;19;20021;-69
2024/01/11 06:36:52;;;;;;;67.70;31.25;;;-5.70;1.00;;;;;;7379316;19;20002;-68
2024/01/11 06:39:22;;;;;;;68.35;29.98;;;-5.70;1.00;;;;;;7380075;19;20554;-67
2024/01/11 06:41:55;;;;;;;66.18;31.73;;;-5.60;1.00;;;;;;7385953;19;20085;-67
2024/01/11 06:44:25;;;;;;;69.07;32.60;;;-5.70;1.00;;;;;;7381141;19;20482;-68
2024/01/11 06:46:55;;;;;;;71.53;33.03;;;-5.60;1.00;;;;;;7375679;19;20388;-69
2024/01/11 06:49:25;;;;;;;68.18;32.35;;;-5.40;1.00;;;;;;7376532;19;20506;-69
2024/01/11 06:51:55;;;;;;;69.13;34.33;;;-5.50;1.00;;;;;;7378967;19;20529;-68
2024/01/11 06:54:25;;;;;;;71.45;32.70;;;-5.60;1.00;;;;;;7377002;19;20029;-69
2024/01/11 06:56:58;;;;;;;67.32;33.88;;;-5.60;1.00;;;;;;7377644;19;20007;-68
2024/01/11 06:59:28;;;;;;;77.03;32.88;;;-5.70;1.00;;;;;;7376163;19;20030;-69
2024/01/11 07:01:58;;;;;;;66.47;30.02;;;-5.60;1.00;;;;;;7379678;19;20012;-69
2024/01/11 07:04:28;;;;;;;73.13;31.58;;;-5.50;1.00;;;;;;7376136;19;20011;-68
2024/01/11 07:07:04;;;;;;;66.55;30.15;;;-5.50;1.00;;;;;;7380064;19;20062;-67
2024/01/11 07:09:34;;;;;;;64.85;30.23;;;-5.60;1.00;;;;;;7376241;19;20011;-69
2024/01/11 07:12:08;;;;;;;61.95;29.83;;;-5.60;1.00;;;;;;7378691;19;20032;-69
2024/01/11 07:14:38;;;;;;;64.10;30.15;;;-5.60;1.00;;;;;;7372534;19;20011;-70
2024/01/11 07:17:09;;;;;;;66.57;31.50;;;-5.50;1.00;;;;;;7377380;19;20015;-69
2024/01/11 07:19:41;;;;;;;69.70;33.22;;;-5.60;1.00;;;;;;7375852;19;20067;-69
2024/01/11 07:22:11;;;;;;;69.68;33.13;;;-5.60;1.00;;;;;;7375884;19;20010;-68
2024/01/11 07:24:42;;;;;;;69.40;32.33;;;-5.70;1.00;;;;;;7375888;19;20329;-69
2024/01/11 07:27:15;;;;;;;77.15;31.00;;;-5.70;1.00;;;;;;7377670;19;20074;-70
2024/01/11 07:29:45;;;;;;;67.65;31.08;;;-5.60;1.00;;;;;;7375605;19;20011;-69
2024/01/11 07:32:15;;;;;;;63.97;29.30;;;-5.60;1.00;;;;;;7376097;19;20094;-69
2024/01/11 07:34:45;;;;;;;67.38;31.92;;;-5.50;1.00;;;;;;7375477;19;20013;-69
2024/01/11 07:37:15;;;;;;;64.93;31.48;;;-5.50;1.00;;;;;;7376096;19;20021;-70
2024/01/11 07:39:45;;;;;;;70.03;31.13;;;-5.50;1.00;;;;;;7374823;19;20011;-68
2024/01/11 07:42:19;;;;;;;63.72;29.48;;;-5.50;1.00;;;;;;7376656;19;20014;-70
2024/01/11 07:44:49;;;;;;;62.25;28.80;;;-5.40;1.00;;;;;;7375065;19;20474;-70
2024/01/11 07:47:19;;;;;;;62.95;29.20;;;-5.40;1.00;;;;;;7374965;19;20006;-69
2024/01/11 07:49:49;;;;;;;62.30;30.48;;;-5.30;1.00;;;;;;7375820;19;20026;-69
2024/01/11 07:52:19;;;;;;;65.43;32.47;;;-5.40;1.00;;;;;;7375856;19;20413;-69
2024/01/11 07:54:50;;;;;;;72.03;32.60;;;-5.30;1.00;;;;;;7375944;19;20419;-70
2024/01/11 07:57:23;;;;;;;70.25;32.85;;;-5.30;1.00;;;;;;7375967;19;20447;-69
2024/01/11 07:59:53;;;;;;;65.53;31.48;;;-5.30;1.00;;;;;;7381880;19;20006;-69
2024/01/11 08:02:23;;;;;;;64.93;30.98;;;-5.30;1.00;;;;;;7382155;19;20470;-68
2024/01/11 08:04:54;;;;;;;67.85;32.85;;;-5.30;1.00;;;;;;7382025;19;20017;-68
2024/01/11 08:07:24;;;;;;;68.40;32.92;;;-5.40;1.00;;;;;;7381752;19;20011;-69
2024/01/11 08:09:55;;;;;;;71.78;33.80;;;-5.20;1.00;;;;;;7382355;19;20035;-69
2024/01/11 08:12:28;;;;;;;65.55;33.53;;;-5.30;1.00;;;;;;7382794;19;20138;-69
2024/01/11 08:14:58;;;;;;;58.92;29.95;;;-5.20;1.00;;;;;;7382981;19;20398;-68
2024/01/11 08:17:28;;;;;;;70.88;32.45;;;-5.20;1.00;;;;;;7382677;19;20021;-67
2024/01/11 08:19:58;;;;;;;68.10;31.15;;;-5.20;1.00;;;;;;7383632;19;20463;-68
2024/01/11 08:22:33;;;;;;;68.88;32.75;;;-5.20;1.00;;;;;;7379900;19;20013;-69
2024/01/11 08:25:04;;;;;;;65.70;30.30;;;-5.10;1.00;;;;;;7383796;19;20010;-68
2024/01/11 08:27:37;;;;;;;61.88;30.30;;;-5.00;1.00;;;;;;7383106;19;20010;-68
2024/01/11 08:30:09;;;;;;;69.22;31.20;;;-4.90;1.00;;;;;;7381537;19;20005;-69
2024/01/11 08:32:39;;;;;;;61.20;31.25;;;-5.00;1.00;;;;;;7380438;19;20027;-70
2024/01/11 08:35:12;;;;;;;62.70;29.00;;;-4.90;1.00;;;;;;7381085;19;20010;-69
2024/01/11 08:37:42;;;;;;;66.78;29.77;;;-4.90;1.00;;;;;;7382314;19;20385;-68
2024/01/11 08:40:13;;;;;;;67.15;32.47;;;-4.90;1.00;;;;;;7381173;19;20010;-68
2024/01/11 08:42:47;;;;;;;67.93;29.20;;;-4.70;1.00;;;;;;7380809;19;20019;-70
2024/01/11 08:45:18;;;;;;;64.67;30.17;;;-4.70;1.00;;;;;;7380558;19;20007;-70
2024/01/11 08:47:48;;;;;;;70.82;33.00;;;-4.70;1.00;;;;;;7381981;19;20017;-70
2024/01/11 08:50:20;;;;;;;95.03;40.55;;;-4.60;1.00;;;;;;7382067;19;20050;-68
2024/01/11 08:52:55;;;;;;;74.50;35.13;;;-4.60;1.00;;;;;;7383148;19;20555;-70
2024/01/11 08:55:26;;;;;;;59.47;30.85;;;-4.40;1.00;;;;;;7380828;19;20113;-70
2024/01/11 08:57:59;;;;;;;67.63;30.92;;;-4.40;1.00;;;;;;7382643;19;20045;-70
2024/01/11 09:00:29;;;;;;;63.85;32.78;;;-4.20;1.00;;;;;;7380818;19;20014;-69
2024/01/11 09:03:00;;;;;;;69.63;34.15;;;-4.10;1.00;;;;;;7388806;19;20023;-69
2024/01/11 09:05:31;;;;;;;63.15;32.40;;;-4.00;1.00;;;;;;7393684;19;20030;-68
2024/01/11 09:08:02;;;;;;;64.20;29.75;;;-4.20;1.00;;;;;;7383117;19;20006;-69
2024/01/11 09:10:32;;;;;;;61.92;30.35;;;-4.20;1.00;;;;;;7378959;19;20031;-69
2024/01/11 09:13:05;;;;;;;76.20;30.90;;;-4.00;1.00;;;;;;7381145;19;20373;-70
2024/01/11 09:15:35;;;;;;;66.72;31.20;;;-3.90;1.00;;;;;;7380624;19;20022;-68
2024/01/11 09:18:06;;;;;;;63.30;29.27;;;-4.10;1.00;;;;;;7381408;19;20050;-70
2024/01/11 09:20:38;;;;;;;58.85;29.63;;;-4.10;1.00;;;;;;7379607;19;20006;-68
2024/01/11 09:23:08;;;;;;;59.28;29.88;;;-4.10;1.00;;;;;;7377521;19;20018;-69
2024/01/11 09:25:39;;;;;;;59.00;29.08;;;-3.90;1.00;;;;;;7379925;19;20035;-68
2024/01/11 09:28:12;;;;;;;55.30;27.90;;;-3.80;1.00;;;;;;7380712;19;20014;-69
2024/01/11 09:30:42;;;;;;;61.63;29.25;;;-3.90;1.00;;;;;;7379982;19;20015;-69
2024/01/11 09:33:12;;;;;;;55.67;28.80;;;-3.80;1.00;;;;;;7378960;19;20372;-69
2024/01/11 09:35:43;;;;;;;57.00;27.88;;;-3.70;1.00;;;;;;7379482;19;20031;-69
2024/01/11 09:38:13;;;;;;;55.60;28.00;;;-3.70;1.00;;;;;;7380600;19;20025;-70
2024/01/11 09:40:43;;;;;;;63.67;28.13;;;-3.70;1.00;;;;;;7379638;19;20017;-71
2024/01/11 09:43:16;;;;;;;69.18;34.10;;;-3.50;1.00;;;;;;7380145;19;20053;-70
2024/01/11 09:45:46;;;;;;;54.83;28.23;;;-3.30;1.00;;;;;;7381164;19;20014;-68
2024/01/11 09:48:17;;;;;;;62.00;30.48;;;-3.30;1.00;;;;;;7381026;19;20009;-69
2024/01/11 09:50:47;;;;;;;58.63;29.23;;;-3.30;1.00;;;;;;7379643;19;20074;-69
2024/01/11 09:53:20;;;;;;;60.90;30.08;;;-3.30;1.00;;;;;;7380260;19;20791;-70
2024/01/11 09:55:51;;;;;;;59.85;31.00;;;-3.30;1.00;;;;;;7379951;19;20045;-70
2024/01/11 09:58:24;;;;;;;58.90;30.42;;;-3.20;1.00;;;;;;7381746;19;20032;-71
2024/01/11 10:00:59;;;;;;;61.67;31.15;;;-3.10;1.00;;;;;;7377835;19;20010;-68
2024/01/11 10:03:29;;;;;;;52.35;29.88;;;-3.00;1.00;;;;;;7379927;19;20036;-69
2024/01/11 10:06:01;;;;;;;56.17;29.38;;;-2.90;1.00;;;;;;7379447;19;20037;-69
2024/01/11 10:08:33;;;;;;;57.20;31.15;;;-2.60;1.00;;;;;;7380762;19;20387;-69
2024/01/11 10:11:03;;;;;;;51.88;29.30;;;-2.50;1.00;;;;;;7381777;19;20015;-70
2024/01/11 10:13:38;;;;;;;57.95;30.77;;;-2.30;1.00;;;;;;7381039;19;20014;-71
2024/01/11 10:16:10;;;;;;;53.30;29.50;;;-2.10;1.00;;;;;;7377453;19;20011;-70
2024/01/11 10:18:40;;;;;;;59.63;33.38;;;-2.20;1.00;;;;;;7378572;19;20037;-69
2024/01/11 10:21:10;;;;;;;59.70;35.97;;;-2.10;1.00;;;;;;7376777;19;20041;-70
2024/01/11 10:23:41;;;;;;;59.15;31.25;;;-2.00;1.00;;;;;;7378186;19;20007;-70
2024/01/11 10:26:11;;;;;;;58.83;32.15;;;-2.00;1.00;;;;;;7379065;19;20201;-69
2024/01/11 10:28:46;;;;;;;63.47;36.10;;;-2.00;1.00;;;;;;7377399;19;20582;-69
2024/01/11 10:31:18;;;;;;;60.22;33.65;;;-1.90;1.00;;;;;;7378126;19;20003;-70
2024/01/11 10:33:48;;;;;;;58.33;32.38;;;-2.00;1.00;;;;;;7379232;19;20006;-69
2024/01/11 10:36:19;;;;;;;60.08;33.33;;;-2.00;1.00;;;;;;7378711;19;20022;-70
2024/01/11 10:38:51;;;;;;;57.80;33.05;;;-1.70;1.00;;;;;;7379507;19;20010;-68
2024/01/11 10:41:22;;;;;;;58.70;34.05;;;-1.60;1.00;;;;;;7379621;19;20527;-69
2024/01/11 10:43:59;;;;;;;57.22;34.17;;;-1.60;1.00;;;;;;7378495;19;20018;-70
2024/01/11 10:46:31;;;;;;;57.13;33.30;;;-1.50;1.00;;;;;;7375491;19;20040;-70
2024/01/11 10:49:04;;;;;;;61.45;35.13;;;-1.50;1.00;;;;;;7377525;19;20021;-70
2024/01/11 10:51:35;;;;;;;57.35;35.08;;;-1.60;1.00;;;;;;7378406;19;20011;-70
2024/01/11 10:54:06;;;;;;;56.65;33.63;;;-1.40;1.00;;;;;;7377086;19;20010;-69
2024/01/11 10:56:39;;;;;;;58.22;32.17;;;-1.40;1.00;;;;;;7378066;19;20351;-69
2024/01/11 10:59:12;;;;;;;63.88;32.25;;;-1.30;1.00;;;;;;7378387;19;20011;-68
2024/01/11 11:01:43;;;;;;;63.15;35.40;;;-1.30;1.00;;;;;;7378223;19;20010;-68
2024/01/11 11:04:14;;;;;;;59.25;35.03;;;-1.30;1.00;;;;;;7377526;19;20011;-69
2024/01/11 11:06:45;;;;;;;60.83;36.53;;;-1.40;1.00;;;;;;7378632;19;20046;-69
2024/01/11 11:09:17;;;;;;;59.97;34.45;;;-1.40;1.00;;;;;;7377747;19;20869;-68
2024/01/11 11:11:48;;;;;;;60.28;35.80;;;-1.30;1.00;;;;;;7377852;19;20030;-69
2024/01/11 11:14:22;;;;;;;58.58;34.65;;;-1.10;1.00;;;;;;7378978;19;20010;-70
2024/01/11 11:16:53;;;;;;;55.42;32.70;;;-1.20;1.00;;;;;;7379699;19;20018;-69
2024/01/11 11:19:24;;;;;;;60.47;35.85;;;-1.30;1.00;;;;;;7382720;19;20101;-68
2024/01/11 11:21:54;;;;;;;56.85;34.55;;;-1.30;1.00;;;;;;7384401;19;20015;-69
2024/01/11 11:24:24;;;;;;;58.25;33.67;;;-1.10;1.00;;;;;;7374331;19;20066;-69
2024/01/11 11:26:57;;;;;;;55.03;32.65;;;-1.00;1.00;;;;;;7377775;19;20014;-69
2024/01/11 11:29:29;;;;;;;59.70;35.70;;;-1.00;1.00;;;;;;7375308;19;20011;-70
2024/01/11 11:32:00;;;;;;;60.83;34.13;;;-0.90;1.00;;;;;;7375071;19;20478;-68
2024/01/11 11:34:45;;;;;;;53.70;33.40;;;-0.90;1.00;;;;;;7375963;19;20022;-69
2024/01/11 11:37:24;;;;;;;59.20;34.47;;;-1.00;1.00;;;;;;7378347;19;20056;-69
2024/01/11 11:39:55;;;;;;;61.78;35.03;;;-0.90;1.00;;;;;;7379817;19;20015;-69
2024/01/11 11:42:28;;;;;;;62.40;35.70;;;-0.80;1.00;;;;;;7377709;19;20074;-69
2024/01/11 11:45:04;;;;;;;58.83;35.90;;;-0.80;1.00;;;;;;7371031;19;20021;-70
2024/01/11 11:47:38;;;;;;;58.28;33.28;;;-0.90;1.00;;;;;;7377243;19;20376;-70
2024/01/11 11:50:10;;;;;;;54.90;33.17;;;-0.90;1.00;;;;;;7376061;19;20483;-69
2024/01/11 11:52:41;;;;;;;56.25;33.88;;;-0.80;1.00;;;;;;7376081;19;20709;-68
2024/01/11 11:55:12;;;;;;;54.30;33.22;;;-0.70;1.00;;;;;;7374061;19;20066;-70
2024/01/11 11:57:46;;;;;;;58.28;34.08;;;-0.60;1.00;;;;;;7375777;19;20668;-69
2024/01/11 12:00:19;;;;;;;62.63;35.47;;;-0.60;1.00;;;;;;7376520;19;20077;-70
2024/01/11 12:02:51;;;;;;;63.65;37.38;;;-0.50;1.00;;;;;;7376130;19;20026;-69
2024/01/11 12:05:23;;;;;;;65.13;34.33;;;-0.40;1.00;;;;;;7377579;19;20511;-69
2024/01/11 12:07:54;;;;;;;60.95;35.08;;;-0.30;1.00;;;;;;7375842;19;20422;-69
2024/01/11 12:10:24;;;;;;;65.43;35.45;;;-0.40;1.00;;;;;;7376685;19;20019;-68
2024/01/11 12:12:54;;;;;;;58.47;34.30;;;-0.30;1.00;;;;;;7371449;19;20490;-69
2024/01/11 12:15:29;;;;;;;61.13;35.47;;;-0.30;1.00;;;;;;7374899;19;20471;-69
2024/01/11 12:18:00;;;;;;;59.97;35.70;;;-0.30;1.00;;;;;;7373413;19;20014;-72
2024/01/11 12:20:31;;;;;;;70.63;35.63;;;-0.30;1.00;;;;;;7374603;19;20021;-70
2024/01/11 12:23:02;;;;;;;59.80;35.60;;;-0.30;1.00;;;;;;7375394;19;20011;-68
2024/01/11 12:25:33;;;;;;;66.53;36.25;;;-0.30;1.00;;;;;;7375161;19;20132;-69
2024/01/11 12:28:03;;;;;;;60.33;35.60;;;-0.20;1.00;;;;;;7377047;19;20018;-70
2024/01/11 12:30:36;;;;;;;60.83;35.10;;;-0.30;1.00;;;;;;7374140;19;20018;-70
2024/01/11 12:33:07;;;;;;;63.00;35.95;;;-0.10;1.00;;;;;;7376141;19;20546;-69
2024/01/11 12:35:38;;;;;;;64.15;36.50;;;-0.20;1.00;;;;;;7374068;19;20011;-69
2024/01/11 12:38:09;;;;;;;62.05;36.72;;;-0.40;1.00;;;;;;7376343;19;20090;-69
2024/01/11 12:40:40;;;;;;;63.85;35.42;;;-0.40;1.00;;;;;;7374064;19;20014;-69
2024/01/11 12:43:10;;;;;;;61.97;35.17;;;-0.40;1.00;;;;;;7374838;19;20483;-69
2024/01/11 12:45:43;;;;;;;65.45;37.85;;;-0.40;1.00;;;;;;7378138;19;20094;-69
2024/01/11 12:48:16;;;;;;;62.45;35.40;;;-0.30;1.00;;;;;;7383265;19;20349;-69
2024/01/11 12:50:47;;;;;;;64.60;37.50;;;-0.30;1.00;;;;;;7380583;19;20011;-69
2024/01/11 12:53:20;;;;;;;57.45;34.63;;;-0.20;1.00;;;;;;7381365;19;20623;-69
2024/01/11 12:55:51;;;;;;;63.83;36.72;;;-0.20;1.00;;;;;;7381644;19;20856;-70